Time;durP1;ratioP1;P1;durP2;ratioP2;P2;SDS_P1;SDS_P2;PMS_P1;PMS_P2;Temp;Humidity;BMP_temperature;BMP_pressure;BME280_temperature;BME280_humidity;BME280_pressure;Samples;Min_cycle;Max_cycle;Signal;HPM_P1;HPM_P2
2022/11/20 00:02:10;;;;;;;;;;;-2.80;99.90;;;;;;5013658;28;19921;-78
2022/11/20 00:04:36;;;;;;;;;;;-2.80;99.90;;;;;;5045367;28;19921;-78
2022/11/20 00:07:02;;;;;;;;;;;-2.90;99.90;;;;;;5015467;28;19972;-80
2022/11/20 00:09:27;;;;;;;;;;;-3.00;99.90;;;;;;5048123;28;20368;-77
2022/11/20 00:11:53;;;;;;;;;;;-3.00;99.90;;;;;;5029397;28;19921;-78
2022/11/20 00:14:19;;;;;;;;;;;-3.00;99.90;;;;;;5004964;28;19995;-78
2022/11/20 00:16:44;;;;;;;;;;;-3.00;99.90;;;;;;5052684;28;19921;-77
2022/11/20 00:19:10;;;;;;;;;;;-3.00;99.90;;;;;;5003448;28;20011;-77
2022/11/20 00:21:35;;;;;;;;;;;-3.00;99.90;;;;;;5018971;28;19921;-78
2022/11/20 00:24:01;;;;;;;;;;;-2.90;99.90;;;;;;5036051;28;20414;-77
2022/11/20 00:26:27;;;;;;;;;;;-2.90;99.90;;;;;;4981689;28;19925;-77
2022/11/20 00:28:54;;;;;;;;;;;-2.80;99.90;;;;;;5003415;28;20391;-77
2022/11/20 00:31:19;;;;;;;;;;;-2.70;99.90;;;;;;5016060;28;19921;-78
2022/11/20 00:33:46;;;;;;;;;;;-2.70;99.90;;;;;;5027573;28;19921;-78
2022/11/20 00:36:18;;;;;;;;;;;-2.80;99.90;;;;;;5031965;28;20008;-78
2022/11/20 00:38:44;;;;;;;;;;;-2.80;99.90;;;;;;5019395;28;19999;-78
2022/11/20 00:41:11;;;;;;;;;;;-2.90;99.90;;;;;;5015768;28;20016;-78
2022/11/20 00:43:37;;;;;;;;;;;-2.80;99.90;;;;;;5022981;28;19921;-77
2022/11/20 00:46:04;;;;;;;;;;;-2.70;99.90;;;;;;5003206;28;19932;-77
2022/11/20 00:48:30;;;;;;;;;;;-2.70;99.90;;;;;;4999279;28;20357;-78
2022/11/20 00:50:56;;;;;;;;;;;-2.70;99.90;;;;;;4998456;28;19929;-78
2022/11/20 00:53:21;;;;;;;;;;;-2.80;99.90;;;;;;5012754;28;19932;-78
2022/11/20 00:55:57;;;;;;;;;;;-2.80;99.90;;;;;;5015962;28;20392;-78
2022/11/20 00:58:23;;;;;;;;;;;-2.70;99.90;;;;;;5014309;28;20383;-78
2022/11/20 01:00:52;;;;;;;;;;;-2.80;99.90;;;;;;5023245;28;19921;-78
2022/11/20 01:03:18;;;;;;;;;;;-2.70;99.90;;;;;;5021732;28;20016;-80
2022/11/20 01:05:43;;;;;;;;;;;-2.60;99.90;;;;;;5007518;28;19921;-80
2022/11/20 01:08:09;;;;;;;;;;;-2.70;99.90;;;;;;5023137;28;19967;-78
2022/11/20 01:10:35;;;;;;;;;;;-2.70;99.90;;;;;;4995568;28;20019;-78
2022/11/20 01:15:44;;;;;;;;;;;-2.70;99.90;;;;;;5011881;28;19973;-77
2022/11/20 01:18:10;;;;;;;;;;;-2.60;99.90;;;;;;5012088;28;19983;-78
2022/11/20 01:20:36;;;;;;;;;;;-2.50;99.90;;;;;;5022043;28;19967;-78
2022/11/20 01:23:02;;;;;;;;;;;-2.50;99.90;;;;;;5031945;28;19925;-78
2022/11/20 01:25:28;;;;;;;;;;;-2.50;99.90;;;;;;5000189;28;20269;-78
2022/11/20 01:27:53;;;;;;;;;;;-2.40;99.90;;;;;;5039458;28;19944;-77
2022/11/20 01:30:19;;;;;;;;;;;-2.50;99.90;;;;;;5005315;28;19960;-77
2022/11/20 01:32:45;;;;;;;;;;;-2.50;99.90;;;;;;5028081;28;19925;-78
2022/11/20 01:35:10;;;;;;;;;;;-2.40;99.90;;;;;;5031702;28;19921;-78
2022/11/20 01:37:36;;;;;;;;;;;-2.40;99.90;;;;;;5019533;28;19961;-78
2022/11/20 01:40:02;;;;;;;;;;;-2.40;99.90;;;;;;4995608;28;19925;-78
2022/11/20 01:45:31;;;;;;;;;;;-2.30;99.90;;;;;;5011833;28;19926;-77
2022/11/20 01:47:56;;;;;;;;;;;-2.20;99.90;;;;;;5012028;28;19987;-77
2022/11/20 01:50:28;;;;;;;;;;;-2.20;99.90;;;;;;5012097;28;20431;-77
2022/11/20 01:53:08;;;;;;;;;;;-2.10;99.90;;;;;;4995624;28;20448;-77
2022/11/20 01:55:39;;;;;;;;;;;-2.10;99.90;;;;;;5019860;28;19921;-77
2022/11/20 01:58:05;;;;;;;;;;;-2.10;99.90;;;;;;5047810;28;19925;-77
2022/11/20 02:00:31;;;;;;;;;;;-2.00;99.90;;;;;;5011076;28;19925;-77
2022/11/20 02:03:02;;;;;;;;;;;-1.90;99.90;;;;;;5011741;28;19921;-78
2022/11/20 02:05:33;;;;;;;;;;;-1.90;99.90;;;;;;5027572;28;20000;-77
2022/11/20 02:08:00;;;;;;;;;;;-1.90;99.90;;;;;;5011945;28;20273;-77
2022/11/20 02:10:26;;;;;;;;;;;-1.80;99.90;;;;;;5029822;28;19929;-79
2022/11/20 02:15:40;;;;;;;;;;;-1.80;99.90;;;;;;5016414;28;19921;-78
2022/11/20 02:18:06;;;;;;;;;;;-1.70;99.90;;;;;;5029707;28;19932;-78
2022/11/20 02:20:32;;;;;;;;;;;-1.80;99.90;;;;;;5027794;28;19925;-78
2022/11/20 02:23:01;;;;;;;;;;;-1.80;99.90;;;;;;5021256;28;20071;-78
2022/11/20 02:25:27;;;;;;;;;;;-1.80;99.90;;;;;;5004955;28;19995;-78
2022/11/20 02:27:53;;;;;;;;;;;-1.70;99.90;;;;;;5026557;28;19921;-78
2022/11/20 02:30:18;;;;;;;;;;;-1.80;99.90;;;;;;5031888;28;19928;-78
2022/11/20 02:32:44;;;;;;;;;;;-1.80;99.90;;;;;;4999644;28;19921;-78
2022/11/20 02:35:19;;;;;;;;;;;-1.80;99.90;;;;;;5014507;28;19929;-78
2022/11/20 02:37:46;;;;;;;;;;;-1.80;99.90;;;;;;5006848;28;20364;-78
2022/11/20 02:40:12;;;;;;;;;;;-1.80;99.90;;;;;;5041453;28;19975;-77
2022/11/20 02:42:37;;;;;;;;;;;-1.80;99.90;;;;;;5019665;28;19969;-78
2022/11/20 02:45:05;;;;;;;;;;;-1.80;99.90;;;;;;5010558;28;19921;-78
2022/11/20 02:47:31;;;;;;;;;;;-1.80;99.90;;;;;;5014474;28;20032;-78
2022/11/20 02:49:57;;;;;;;;;;;-1.70;99.90;;;;;;5022919;28;20024;-78
2022/11/20 02:52:23;;;;;;;;;;;-1.60;99.90;;;;;;5014630;28;20019;-77
2022/11/20 02:54:48;;;;;;;;;;;-1.60;99.90;;;;;;4997961;28;19922;-78
2022/11/20 02:57:14;;;;;;;;;;;-1.50;99.90;;;;;;5020955;28;19921;-78
2022/11/20 02:59:40;;;;;;;;;;;-1.50;99.90;;;;;;5009921;28;19921;-78
2022/11/20 03:02:05;;;;;;;;;;;-1.60;99.90;;;;;;5005522;28;20355;-78
2022/11/20 03:04:31;;;;;;;;;;;-1.60;99.90;;;;;;4998149;28;19960;-78
2022/11/20 03:06:57;;;;;;;;;;;-1.60;99.90;;;;;;5041439;28;19936;-78
2022/11/20 03:09:22;;;;;;;;;;;-1.60;99.90;;;;;;5033573;28;20448;-79
2022/11/20 03:11:48;;;;;;;;;;;-1.50;99.90;;;;;;5042505;28;20004;-78
2022/11/20 03:14:14;;;;;;;;;;;-1.50;99.90;;;;;;5014161;28;19925;-78
2022/11/20 03:16:39;;;;;;;;;;;-1.50;99.90;;;;;;5031391;28;20321;-78
2022/11/20 03:19:07;;;;;;;;;;;-1.40;99.90;;;;;;5016691;28;19931;-78
2022/11/20 03:21:33;;;;;;;;;;;-1.40;99.90;;;;;;5031895;28;19967;-79
2022/11/20 03:24:02;;;;;;;;;;;-1.30;99.90;;;;;;5017974;28;19933;-78
2022/11/20 03:26:33;;;;;;;;;;;-1.30;99.90;;;;;;5011509;28;19964;-78
2022/11/20 03:29:00;;;;;;;;;;;-1.20;99.90;;;;;;5018351;28;19972;-81
2022/11/20 03:31:33;;;;;;;;;;;-1.20;99.90;;;;;;5025145;28;20428;-78
2022/11/20 03:33:59;;;;;;;;;;;-1.20;99.90;;;;;;5002581;28;19922;-79
2022/11/20 03:36:26;;;;;;;;;;;-1.20;99.90;;;;;;5015205;28;19929;-79
2022/11/20 03:38:55;;;;;;;;;;;-1.20;99.90;;;;;;5021611;28;19921;-78
2022/11/20 03:41:29;;;;;;;;;;;-1.20;99.90;;;;;;4999879;28;19929;-78
2022/11/20 03:43:57;;;;;;;;;;;-1.20;99.90;;;;;;5021856;28;20339;-78
2022/11/20 03:46:23;;;;;;;;;;;-1.20;99.90;;;;;;5017228;28;20000;-78
2022/11/20 03:48:48;;;;;;;;;;;-1.10;99.90;;;;;;5019359;28;19921;-78
2022/11/20 03:51:23;;;;;;;;;;;-1.20;99.90;;;;;;5016640;28;19964;-79
2022/11/20 03:53:49;;;;;;;;;;;-1.30;99.90;;;;;;5017732;28;19928;-78
2022/11/20 03:56:17;;;;;;;;;;;-1.20;99.90;;;;;;5007139;28;20000;-79
2022/11/20 03:58:43;;;;;;;;;;;-1.20;99.90;;;;;;5002417;28;19922;-80
2022/11/20 04:01:10;;;;;;;;;;;-1.10;99.90;;;;;;5022136;28;19990;-78
2022/11/20 04:03:37;;;;;;;;;;;-1.20;99.90;;;;;;4999660;28;20015;-78
2022/11/20 04:06:07;;;;;;;;;;;-1.20;99.90;;;;;;5002583;28;19925;-78
2022/11/20 04:08:33;;;;;;;;;;;-1.20;99.90;;;;;;5000614;28;20400;-79
2022/11/20 04:11:27;;;;;;;;;;;-1.30;99.90;;;;;;5018002;28;20396;-78
2022/11/20 04:14:01;;;;;;;;;;;-1.30;99.90;;;;;;5002261;28;19979;-78
2022/11/20 04:16:29;;;;;;;;;;;-1.30;99.90;;;;;;5016241;28;19921;-78
2022/11/20 04:18:58;;;;;;;;;;;-1.30;99.90;;;;;;5002538;28;20213;-80
2022/11/20 04:21:24;;;;;;;;;;;-1.30;99.90;;;;;;5028187;28;19932;-78
2022/11/20 04:23:50;;;;;;;;;;;-1.40;99.90;;;;;;5023847;28;20369;-78
2022/11/20 04:26:16;;;;;;;;;;;-1.30;99.90;;;;;;5019491;28;20388;-79
2022/11/20 04:28:42;;;;;;;;;;;-1.40;99.90;;;;;;5035211;28;20043;-81
2022/11/20 04:31:08;;;;;;;;;;;-1.30;99.90;;;;;;5034840;28;19933;-78
2022/11/20 04:33:37;;;;;;;;;;;-1.20;99.90;;;;;;5022265;28;20325;-77
2022/11/20 04:36:04;;;;;;;;;;;-1.30;99.90;;;;;;5016837;28;19967;-77
2022/11/20 04:38:30;;;;;;;;;;;-1.20;99.90;;;;;;5010127;28;19921;-78
2022/11/20 04:40:57;;;;;;;;;;;-1.20;99.90;;;;;;5026471;28;19928;-78
2022/11/20 04:43:22;;;;;;;;;;;-1.20;99.90;;;;;;5006503;28;19959;-78
2022/11/20 04:45:52;;;;;;;;;;;-1.20;99.90;;;;;;5039797;28;19972;-78
2022/11/20 04:48:18;;;;;;;;;;;-1.20;99.90;;;;;;5023692;28;19921;-79
2022/11/20 04:50:43;;;;;;;;;;;-1.20;99.90;;;;;;5021001;28;19928;-78
2022/11/20 04:53:09;;;;;;;;;;;-1.20;99.90;;;;;;5008597;28;19928;-78
2022/11/20 04:55:34;;;;;;;;;;;-1.20;99.90;;;;;;4994342;28;19925;-78
2022/11/20 04:58:03;;;;;;;;;;;-1.20;99.90;;;;;;5020995;28;19936;-77
2022/11/20 05:00:29;;;;;;;;;;;-1.10;99.90;;;;;;5017584;28;19975;-78
2022/11/20 05:02:54;;;;;;;;;;;-1.10;99.90;;;;;;5028852;28;20283;-78
2022/11/20 05:05:20;;;;;;;;;;;-1.10;99.90;;;;;;4989162;28;19921;-78
2022/11/20 05:07:45;;;;;;;;;;;-1.10;99.90;;;;;;5031931;28;20375;-78
2022/11/20 05:10:11;;;;;;;;;;;-1.10;99.90;;;;;;5020036;28;20007;-78
2022/11/20 05:12:37;;;;;;;;;;;-1.10;99.90;;;;;;5006305;28;19921;-78
2022/11/20 05:15:02;;;;;;;;;;;-1.00;99.90;;;;;;5026681;28;19922;-78
2022/11/20 05:17:28;;;;;;;;;;;-1.00;99.90;;;;;;4999124;28;19927;-78
2022/11/20 05:19:53;;;;;;;;;;;-1.10;99.90;;;;;;5014894;28;20276;-78
2022/11/20 05:22:19;;;;;;;;;;;-1.00;99.90;;;;;;5014323;28;19943;-79
2022/11/20 05:24:44;;;;;;;;;;;-1.00;99.90;;;;;;5036829;28;19948;-78
2022/11/20 05:27:10;;;;;;;;;;;-1.10;99.90;;;;;;5026416;28;20296;-78
2022/11/20 05:29:36;;;;;;;;;;;-1.10;99.90;;;;;;5007581;28;19925;-78
2022/11/20 05:32:01;;;;;;;;;;;-1.10;99.90;;;;;;5028775;28;20020;-77
2022/11/20 05:34:27;;;;;;;;;;;-1.10;99.90;;;;;;5022581;28;19944;-77
2022/11/20 05:36:52;;;;;;;;;;;-1.00;99.90;;;;;;5028551;28;19921;-77
2022/11/20 05:39:18;;;;;;;;;;;-1.00;99.90;;;;;;4980529;28;19999;-78
2022/11/20 05:41:43;;;;;;;;;;;-1.00;99.90;;;;;;5015275;28;19951;-79
2022/11/20 05:44:10;;;;;;;;;;;-1.10;99.90;;;;;;5021981;28;19922;-78
2022/11/20 05:46:36;;;;;;;;;;;-1.10;99.90;;;;;;4979587;28;19921;-78
2022/11/20 05:49:04;;;;;;;;;;;-0.90;99.90;;;;;;5012976;28;19933;-78
2022/11/20 05:51:29;;;;;;;;;;;-1.00;99.90;;;;;;5031099;28;20292;-78
2022/11/20 05:53:58;;;;;;;;;;;-1.10;99.90;;;;;;5032688;28;19924;-78
2022/11/20 05:56:24;;;;;;;;;;;-1.00;99.90;;;;;;5013669;28;19922;-81
2022/11/20 05:58:49;;;;;;;;;;;-1.00;99.90;;;;;;5008084;28;19921;-78
2022/11/20 06:01:17;;;;;;;;;;;-1.00;99.90;;;;;;5013830;28;19921;-78
2022/11/20 06:03:45;;;;;;;;;;;-0.90;99.90;;;;;;5019487;28;20365;-78
2022/11/20 06:06:11;;;;;;;;;;;-1.00;99.90;;;;;;5025576;28;19925;-78
2022/11/20 06:08:37;;;;;;;;;;;-1.00;99.90;;;;;;5018075;28;19921;-78
2022/11/20 06:11:03;;;;;;;;;;;-1.00;99.90;;;;;;5045836;28;19925;-78
2022/11/20 06:13:29;;;;;;;;;;;-0.90;99.90;;;;;;5033221;28;20015;-78
2022/11/20 06:15:54;;;;;;;;;;;-0.90;99.90;;;;;;5031896;28;20020;-78
2022/11/20 06:18:20;;;;;;;;;;;-0.90;99.90;;;;;;4999303;28;19932;-78
2022/11/20 06:20:46;;;;;;;;;;;-0.80;99.90;;;;;;5018346;28;20381;-79
2022/11/20 06:23:12;;;;;;;;;;;-0.90;99.90;;;;;;4999212;28;19933;-79
2022/11/20 06:25:38;;;;;;;;;;;-0.80;99.90;;;;;;5019861;28;19927;-78
2022/11/20 06:28:04;;;;;;;;;;;-0.90;99.90;;;;;;5051944;28;19924;-79
2022/11/20 06:30:29;;;;;;;;;;;-0.80;99.90;;;;;;5034649;28;20017;-78
2022/11/20 06:32:55;;;;;;;;;;;-0.90;99.90;;;;;;5020012;28;20292;-78
2022/11/20 06:35:20;;;;;;;;;;;-0.90;99.90;;;;;;5024038;28;20276;-79
2022/11/20 06:37:46;;;;;;;;;;;-0.90;99.90;;;;;;5020001;28;19972;-78
2022/11/20 06:40:12;;;;;;;;;;;-0.90;99.90;;;;;;5019891;28;19925;-80
2022/11/20 06:42:37;;;;;;;;;;;-0.90;99.90;;;;;;5018266;28;19932;-77
2022/11/20 06:45:03;;;;;;;;;;;-0.90;99.90;;;;;;5031305;28;19921;-78
2022/11/20 06:47:28;;;;;;;;;;;-0.90;99.90;;;;;;5001180;28;19964;-78
2022/11/20 06:49:54;;;;;;;;;;;-0.90;99.90;;;;;;5031051;28;19968;-78
2022/11/20 06:52:20;;;;;;;;;;;-0.80;99.90;;;;;;5021831;28;20014;-78
2022/11/20 06:54:45;;;;;;;;;;;-0.90;99.90;;;;;;5012336;28;19976;-80
2022/11/20 06:57:11;;;;;;;;;;;-0.90;99.90;;;;;;5028576;28;19931;-78
2022/11/20 06:59:39;;;;;;;;;;;-0.70;99.90;;;;;;5000428;28;19964;-79
2022/11/20 07:02:05;;;;;;;;;;;-0.70;99.90;;;;;;5027092;28;20341;-78
2022/11/20 07:04:30;;;;;;;;;;;-0.80;99.90;;;;;;4984535;28;20180;-80
2022/11/20 07:06:56;;;;;;;;;;;-0.80;99.90;;;;;;5003701;28;19925;-78
2022/11/20 07:09:22;;;;;;;;;;;-0.80;99.90;;;;;;5026780;28;19926;-78
2022/11/20 07:11:47;;;;;;;;;;;-0.70;99.90;;;;;;5008976;28;20280;-78
2022/11/20 07:14:13;;;;;;;;;;;-0.70;99.90;;;;;;5025359;28;20267;-78
2022/11/20 07:16:38;;;;;;;;;;;-0.70;99.90;;;;;;5024451;28;19975;-79
2022/11/20 07:19:04;;;;;;;;;;;-0.60;99.90;;;;;;5017038;28;19971;-78
2022/11/20 07:21:30;;;;;;;;;;;-0.70;99.90;;;;;;5032856;28;20296;-78
2022/11/20 07:23:55;;;;;;;;;;;-0.70;99.90;;;;;;5014437;28;19968;-78
2022/11/20 07:26:21;;;;;;;;;;;-0.70;99.90;;;;;;5047730;28;20357;-79
2022/11/20 07:28:46;;;;;;;;;;;-0.70;99.90;;;;;;5015314;28;20288;-78
2022/11/20 07:31:12;;;;;;;;;;;-0.70;99.90;;;;;;4993740;28;19976;-78
2022/11/20 07:33:38;;;;;;;;;;;-0.60;99.90;;;;;;4997695;28;19925;-79
2022/11/20 07:36:04;;;;;;;;;;;-0.60;99.90;;;;;;4997630;28;20292;-79
2022/11/20 07:38:30;;;;;;;;;;;-0.70;99.90;;;;;;5017615;28;20026;-78
2022/11/20 07:40:57;;;;;;;;;;;-0.70;99.90;;;;;;5030581;28;20373;-79
2022/11/20 07:43:23;;;;;;;;;;;-0.70;99.90;;;;;;5030726;28;19921;-78
2022/11/20 07:45:48;;;;;;;;;;;-0.70;99.90;;;;;;5014191;28;19943;-78
2022/11/20 07:48:14;;;;;;;;;;;-0.70;99.90;;;;;;5013582;28;19987;-79
2022/11/20 07:50:39;;;;;;;;;;;-0.70;99.90;;;;;;4998202;28;19944;-79
2022/11/20 07:53:05;;;;;;;;;;;-0.70;99.90;;;;;;5020606;28;19928;-79
2022/11/20 07:55:31;;;;;;;;;;;-0.60;99.90;;;;;;5016806;28;19928;-79
2022/11/20 07:57:57;;;;;;;;;;;-0.50;99.90;;;;;;5031125;28;19921;-77
2022/11/20 08:00:23;;;;;;;;;;;-0.50;99.90;;;;;;5034723;28;19921;-78
2022/11/20 08:02:48;;;;;;;;;;;-0.50;99.90;;;;;;5015396;28;19928;-80
2022/11/20 08:05:14;;;;;;;;;;;-0.50;99.90;;;;;;5018895;28;19972;-79
2022/11/20 08:07:40;;;;;;;;;;;-0.40;99.90;;;;;;5039631;28;20347;-80
2022/11/20 08:10:07;;;;;;;;;;;-0.40;99.90;;;;;;5039240;28;19921;-79
2022/11/20 08:15:17;;;;;;;;;;;-0.30;99.90;;;;;;5014989;28;20398;-79
2022/11/20 08:17:43;;;;;;;;;;;-0.30;99.90;;;;;;5023065;28;20015;-79
2022/11/20 08:20:09;;;;;;;;;;;-0.30;99.90;;;;;;5033438;28;19947;-79
2022/11/20 08:22:34;;;;;;;;;;;-0.30;99.90;;;;;;5030390;28;20280;-78
2022/11/20 08:25:00;;;;;;;;;;;-0.20;99.90;;;;;;5040854;28;19928;-79
2022/11/20 08:27:26;;;;;;;;;;;-0.20;99.90;;;;;;5014375;28;19925;-79
2022/11/20 08:29:51;;;;;;;;;;;-0.20;99.90;;;;;;5013284;28;19948;-79
2022/11/20 08:32:17;;;;;;;;;;;-0.20;99.90;;;;;;5015675;28;20379;-80
2022/11/20 08:34:42;;;;;;;;;;;-0.10;99.90;;;;;;5013378;28;19943;-79
2022/11/20 08:37:08;;;;;;;;;;;-0.10;99.90;;;;;;5012196;28;19968;-79
2022/11/20 08:39:33;;;;;;;;;;;0.00;99.90;;;;;;5025366;28;19939;-79
2022/11/20 08:41:59;;;;;;;;;;;-0.10;99.90;;;;;;5014932;28;20330;-79
2022/11/20 08:44:25;;;;;;;;;;;0.10;99.90;;;;;;5027414;28;19925;-79
2022/11/20 08:46:50;;;;;;;;;;;0.10;99.90;;;;;;5029290;28;19925;-78
2022/11/20 08:49:16;;;;;;;;;;;0.10;99.90;;;;;;5025785;28;19975;-79
2022/11/20 08:51:42;;;;;;;;;;;0.20;99.90;;;;;;5031903;28;19990;-78
2022/11/20 08:54:08;;;;;;;;;;;0.20;99.90;;;;;;5021399;28;19921;-80
2022/11/20 08:56:33;;;;;;;;;;;0.20;99.90;;;;;;5037020;28;19965;-79
2022/11/20 08:58:59;;;;;;;;;;;0.20;99.90;;;;;;5020028;28;19921;-80
2022/11/20 09:01:25;;;;;;;;;;;0.20;99.90;;;;;;5013909;28;19921;-80
2022/11/20 09:03:51;;;;;;;;;;;0.20;99.90;;;;;;5031189;28;20352;-81
2022/11/20 09:06:16;;;;;;;;;;;0.20;99.90;;;;;;5020207;28;19927;-81
2022/11/20 09:08:42;;;;;;;;;;;0.20;99.90;;;;;;5041488;28;20271;-79
2022/11/20 09:11:08;;;;;;;;;;;0.20;99.90;;;;;;5017819;28;19925;-78
2022/11/20 09:13:34;;;;;;;;;;;0.40;99.90;;;;;;5033587;28;19921;-79
2022/11/20 09:16:07;;;;;;;;;;;0.60;99.90;;;;;;4996275;28;19921;-77
2022/11/20 09:18:35;;;;;;;;;;;0.80;99.90;;;;;;5014258;28;19921;-79
2022/11/20 09:21:03;;;;;;;;;;;1.00;99.90;;;;;;5014258;28;19958;-80
2022/11/20 09:23:31;;;;;;;;;;;1.20;99.90;;;;;;5013270;28;19922;-79
2022/11/20 09:25:59;;;;;;;;;;;1.40;99.90;;;;;;5028949;28;19928;-80
2022/11/20 09:28:25;;;;;;;;;;;1.80;99.90;;;;;;5012746;28;20015;-80
2022/11/20 09:30:51;;;;;;;;;;;2.50;99.90;;;;;;5046518;28;20506;-79
2022/11/20 09:33:16;;;;;;;;;;;3.20;99.90;;;;;;5023563;28;19925;-79
2022/11/20 09:35:43;;;;;;;;;;;3.80;99.90;;;;;;4995668;28;19932;-80
2022/11/20 09:38:15;;;;;;;;;;;4.40;99.90;;;;;;4998785;28;20057;-79
2022/11/20 09:40:45;;;;;;;;;;;4.80;99.90;;;;;;5015082;28;20360;-80
2022/11/20 09:43:24;;;;;;;;;;;5.10;99.90;;;;;;5032673;28;20265;-78
2022/11/20 09:45:55;;;;;;;;;;;5.00;99.90;;;;;;5039289;28;19921;-79
2022/11/20 09:48:41;;;;;;;;;;;4.50;99.90;;;;;;5032327;28;19921;-82
2022/11/20 09:51:10;;;;;;;;;;;4.20;99.90;;;;;;5021266;28;20004;-79
2022/11/20 09:53:35;;;;;;;;;;;3.60;99.90;;;;;;5012509;28;19929;-78
2022/11/20 09:56:02;;;;;;;;;;;3.20;99.90;;;;;;5048098;28;19975;-79
2022/11/20 09:58:34;;;;;;;;;;;2.70;99.90;;;;;;5047227;28;19968;-79
2022/11/20 10:01:05;;;;;;;;;;;2.40;99.90;;;;;;5016067;28;19928;-79
2022/11/20 10:03:37;;;;;;;;;;;2.10;99.90;;;;;;5012972;28;19930;-80
2022/11/20 10:06:05;;;;;;;;;;;1.90;99.90;;;;;;5025869;28;19928;-79
2022/11/20 10:08:43;;;;;;;;;;;1.80;99.90;;;;;;5027134;28;19921;-80
2022/11/20 10:11:14;;;;;;;;;;;1.70;99.90;;;;;;5025845;28;19925;-78
2022/11/20 10:13:59;;;;;;;;;;;1.60;99.90;;;;;;5029923;28;19935;-80
2022/11/20 10:16:43;;;;;;;;;;;1.50;99.90;;;;;;5023693;28;20036;-80
2022/11/20 10:19:15;;;;;;;;;;;1.40;99.90;;;;;;5039979;28;20049;-79
2022/11/20 10:21:48;;;;;;;;;;;1.30;99.90;;;;;;5012669;28;19944;-82
2022/11/20 10:24:29;;;;;;;;;;;1.30;99.90;;;;;;5028448;28;19921;-80
2022/11/20 10:26:58;;;;;;;;;;;1.30;99.90;;;;;;5012707;28;19921;-80
2022/11/20 10:29:33;;;;;;;;;;;1.20;99.90;;;;;;5027916;28;19921;-79
2022/11/20 10:32:03;;;;;;;;;;;1.10;99.90;;;;;;5011744;28;20084;-79
2022/11/20 10:34:31;;;;;;;;;;;1.20;99.90;;;;;;5027865;28;19929;-81
2022/11/20 10:37:03;;;;;;;;;;;1.20;99.90;;;;;;5017977;28;19921;-79
2022/11/20 10:39:28;;;;;;;;;;;1.20;99.90;;;;;;5012329;28;19921;-79
2022/11/20 10:41:55;;;;;;;;;;;1.40;99.90;;;;;;5015101;28;19924;-79
2022/11/20 10:45:00;;;;;;;;;;;1.40;99.90;;;;;;5026023;28;19925;-80
2022/11/20 10:47:12;;;;;;;;;;;1.30;99.90;;;;;;5017248;28;19921;-79
2022/11/20 10:49:37;;;;;;;;;;;1.50;99.90;;;;;;5035013;28;19921;-79
2022/11/20 10:52:09;;;;;;;;;;;1.50;99.90;;;;;;5035046;28;20293;-79
2022/11/20 10:54:40;;;;;;;;;;;1.60;99.90;;;;;;5031930;28;19929;-80
2022/11/20 10:57:32;;;;;;;;;;;1.70;99.90;;;;;;5015880;28;20300;-79
2022/11/20 11:00:01;;;;;;;;;;;1.80;99.90;;;;;;5027779;28;19921;-79
2022/11/20 11:02:45;;;;;;;;;;;1.90;99.90;;;;;;5050198;28;19929;-81
2022/11/20 11:05:31;;;;;;;;;;;2.00;99.90;;;;;;5015597;28;20486;-79
2022/11/20 11:07:57;;;;;;;;;;;2.10;99.90;;;;;;5018638;28;19928;-79
2022/11/20 11:10:37;;;;;;;;;;;2.30;99.90;;;;;;5028567;28;20392;-80
2022/11/20 11:13:02;;;;;;;;;;;2.30;99.90;;;;;;5015976;28;19931;-79
2022/11/20 11:15:29;;;;;;;;;;;2.40;99.90;;;;;;5023459;28;19921;-79
2022/11/20 11:17:55;;;;;;;;;;;2.40;99.90;;;;;;5016049;28;20399;-82
2022/11/20 11:20:25;;;;;;;;;;;2.50;99.90;;;;;;5031711;28;20022;-80
2022/11/20 11:22:55;;;;;;;;;;;2.50;99.90;;;;;;5031639;28;20055;-79
2022/11/20 11:25:26;;;;;;;;;;;2.60;99.90;;;;;;5034174;28;19921;-82
2022/11/20 11:27:52;;;;;;;;;;;2.60;99.90;;;;;;5031995;28;19928;-80
2022/11/20 11:30:19;;;;;;;;;;;2.70;99.90;;;;;;5000767;28;19922;-80
2022/11/20 11:32:45;;;;;;;;;;;2.80;99.90;;;;;;5032573;28;20463;-81
2022/11/20 11:35:31;;;;;;;;;;;2.90;99.90;;;;;;5024847;28;19921;-81
2022/11/20 11:38:05;;;;;;;;;;;2.90;99.90;;;;;;5020898;28;19928;-80
2022/11/20 11:40:34;;;;;;;;;;;2.90;99.90;;;;;;5027426;28;20368;-80
2022/11/20 11:43:02;;;;;;;;;;;3.00;99.90;;;;;;5026338;28;20404;-80
2022/11/20 11:45:28;;;;;;;;;;;3.00;99.90;;;;;;5033592;28;19975;-81
2022/11/20 11:47:55;;;;;;;;;;;3.00;99.90;;;;;;5034171;28;19925;-81
2022/11/20 11:50:25;;;;;;;;;;;3.00;99.90;;;;;;5037622;28;20364;-80
2022/11/20 11:52:57;;;;;;;;;;;3.00;99.90;;;;;;5050211;28;20380;-81
2022/11/20 11:55:34;;;;;;;;;;;3.10;99.90;;;;;;5033407;28;19931;-80
2022/11/20 11:58:00;;;;;;;;;;;3.10;99.90;;;;;;5034572;28;19931;-80
2022/11/20 12:00:26;;;;;;;;;;;3.00;99.90;;;;;;5037575;28;19922;-80
2022/11/20 12:03:06;;;;;;;;;;;3.00;99.90;;;;;;5022601;28;19980;-80
2022/11/20 12:05:38;;;;;;;;;;;2.90;99.90;;;;;;5014476;28;20362;-81
2022/11/20 12:08:23;;;;;;;;;;;2.90;99.90;;;;;;5018830;28;20302;-80
2022/11/20 12:10:49;;;;;;;;;;;3.00;99.90;;;;;;5021225;28;19921;-81
2022/11/20 12:13:14;;;;;;;;;;;3.10;99.90;;;;;;5030107;28;19921;-80
2022/11/20 12:15:42;;;;;;;;;;;3.20;99.90;;;;;;5032909;28;19996;-81
2022/11/20 12:18:14;;;;;;;;;;;3.20;99.90;;;;;;5034809;28;19925;-82
2022/11/20 12:20:43;;;;;;;;;;;3.20;99.90;;;;;;5030338;28;19971;-81
2022/11/20 12:23:14;;;;;;;;;;;3.10;99.90;;;;;;5024826;28;19976;-81
2022/11/20 12:25:42;;;;;;;;;;;3.00;99.90;;;;;;5032107;28;20000;-81
2022/11/20 12:28:18;;;;;;;;;;;3.00;99.90;;;;;;5029733;28;19929;-81
2022/11/20 12:31:09;;;;;;;;;;;2.90;99.90;;;;;;5029321;28;20288;-80
2022/11/20 12:33:44;;;;;;;;;;;2.90;99.90;;;;;;5023800;28;19969;-83
2022/11/20 12:36:21;;;;;;;;;;;2.80;99.90;;;;;;5016476;28;19921;-82
2022/11/20 12:38:50;;;;;;;;;;;2.80;99.90;;;;;;5027706;28;19928;-82
2022/11/20 12:47:32;;;;;;;;;;;2.90;99.90;;;;;;5014114;28;19994;-80
2022/11/20 12:50:16;;;;;;;;;;;2.80;99.90;;;;;;5028771;28;20289;-81
2022/11/20 12:52:48;;;;;;;;;;;2.80;99.90;;;;;;5028668;28;20311;-81
2022/11/20 12:55:14;;;;;;;;;;;2.80;99.90;;;;;;5013396;28;20368;-80
2022/11/20 12:57:47;;;;;;;;;;;2.80;99.90;;;;;;5013926;28;20008;-81
2022/11/20 13:00:15;;;;;;;;;;;2.70;99.90;;;;;;5013608;28;19921;-81
2022/11/20 13:02:59;;;;;;;;;;;2.70;99.90;;;;;;5013837;28;19929;-81
2022/11/20 13:05:25;;;;;;;;;;;2.80;99.90;;;;;;5026842;28;20008;-80
2022/11/20 13:07:51;;;;;;;;;;;2.80;99.90;;;;;;5032874;28;19983;-81
2022/11/20 13:10:37;;;;;;;;;;;2.80;99.90;;;;;;5033139;28;19921;-81
2022/11/20 13:13:16;;;;;;;;;;;2.70;99.90;;;;;;5033015;28;19924;-80
2022/11/20 13:15:47;;;;;;;;;;;2.80;99.90;;;;;;5038200;28;19976;-81
2022/11/20 13:18:13;;;;;;;;;;;2.80;99.90;;;;;;5013377;28;20112;-81
2022/11/20 13:20:43;;;;;;;;;;;2.90;99.90;;;;;;5012457;28;20031;-80
2022/11/20 13:23:09;;;;;;;;;;;2.80;99.90;;;;;;4996234;28;19921;-81
2022/11/20 13:25:36;;;;;;;;;;;2.90;99.90;;;;;;5019874;28;19975;-81
2022/11/20 13:28:24;;;;;;;;;;;2.80;99.90;;;;;;5033186;28;20011;-81
2022/11/20 13:30:51;;;;;;;;;;;2.80;99.90;;;;;;5032931;28;19920;-81
2022/11/20 13:33:29;;;;;;;;;;;2.80;99.90;;;;;;5048667;28;20011;-83
2022/11/20 13:35:56;;;;;;;;;;;2.80;99.90;;;;;;5047771;28;19921;-80
2022/11/20 13:38:21;;;;;;;;;;;2.80;99.90;;;;;;5033335;28;19925;-80
2022/11/20 13:40:56;;;;;;;;;;;2.80;99.90;;;;;;5033555;28;19928;-82
2022/11/20 13:43:22;;;;;;;;;;;2.80;99.90;;;;;;5034581;28;19971;-81
2022/11/20 13:45:54;;;;;;;;;;;2.70;99.90;;;;;;5032567;28;19921;-81
2022/11/20 13:48:22;;;;;;;;;;;2.70;99.90;;;;;;5032774;28;19925;-83
2022/11/20 13:50:57;;;;;;;;;;;2.80;99.90;;;;;;5048453;28;19925;-80
2022/11/20 13:53:28;;;;;;;;;;;2.70;99.90;;;;;;5031634;28;19940;-81
2022/11/20 13:55:58;;;;;;;;;;;2.70;99.90;;;;;;5032812;28;20323;-83
2022/11/20 13:58:50;;;;;;;;;;;2.70;99.90;;;;;;5014932;28;19921;-81
2022/11/20 14:01:15;;;;;;;;;;;2.60;99.90;;;;;;5014179;28;19976;-80
2022/11/20 14:03:41;;;;;;;;;;;2.70;99.90;;;;;;5013000;28;19921;-81
2022/11/20 14:06:20;;;;;;;;;;;2.70;99.90;;;;;;5011995;28;19932;-81
2022/11/20 14:08:46;;;;;;;;;;;2.60;99.90;;;;;;5011615;28;19928;-81
2022/11/20 14:11:14;;;;;;;;;;;2.70;99.90;;;;;;5026948;28;20375;-81
2022/11/20 14:13:55;;;;;;;;;;;2.60;99.90;;;;;;5031342;28;20430;-81
2022/11/20 14:16:21;;;;;;;;;;;2.60;99.90;;;;;;5020410;28;19948;-82
2022/11/20 14:18:47;;;;;;;;;;;2.60;99.90;;;;;;5044210;28;19968;-81
2022/11/20 14:21:21;;;;;;;;;;;2.70;99.90;;;;;;5017144;28;19964;-81
2022/11/20 14:23:46;;;;;;;;;;;2.70;99.90;;;;;;5023281;28;20011;-81
2022/11/20 14:26:14;;;;;;;;;;;2.70;99.90;;;;;;5016051;28;19930;-83
2022/11/20 14:28:39;;;;;;;;;;;2.70;99.90;;;;;;5033691;28;19929;-83
2022/11/20 14:31:16;;;;;;;;;;;2.70;99.90;;;;;;5031871;28;19929;-82
2022/11/20 14:33:42;;;;;;;;;;;2.70;99.90;;;;;;5014486;28;20364;-85
2022/11/20 14:36:16;;;;;;;;;;;2.70;99.90;;;;;;5015639;28;19922;-82
2022/11/20 14:38:42;;;;;;;;;;;2.70;99.90;;;;;;5019785;28;19925;-89
2022/11/20 14:41:18;;;;;;;;;;;2.60;99.90;;;;;;5046748;28;19975;-88
2022/11/20 14:43:56;;;;;;;;;;;2.60;99.90;;;;;;5030227;28;19928;-87
2022/11/20 14:46:22;;;;;;;;;;;2.60;99.90;;;;;;5023669;28;19964;-87